createdAt,value
2023-03-29T00:01:35.857Z,2.53
2023-03-29T00:04:10.349Z,2.33
2023-03-29T00:06:47.755Z,1.85
2023-03-29T00:09:20.888Z,3.13
2023-03-29T00:11:53.909Z,1.40
2023-03-29T00:14:26.900Z,3.00
2023-03-29T00:16:59.736Z,2.17
2023-03-29T00:19:35.794Z,1.77
2023-03-29T00:22:08.763Z,2.25
2023-03-29T00:24:41.388Z,1.38
2023-03-29T00:27:17.545Z,2.88
2023-03-29T00:29:50.014Z,3.00
2023-03-29T00:32:22.889Z,2.38
2023-03-29T00:34:56.810Z,1.95
2023-03-29T00:37:32.474Z,2.15
2023-03-29T00:40:09.685Z,1.77
2023-03-29T00:42:45.481Z,3.88
2023-03-29T00:45:30.616Z,1.67
2023-03-29T00:48:13.544Z,1.60
2023-03-29T00:50:47.312Z,2.08
2023-03-29T00:53:30.226Z,3.03
2023-03-29T00:56:14.266Z,1.33
2023-03-29T00:59:02.308Z,0.98
2023-03-29T01:01:39.057Z,1.27
2023-03-29T01:04:19.488Z,1.15
2023-03-29T01:06:59.800Z,1.33
2023-03-29T01:09:36.383Z,1.35
2023-03-29T01:12:17.137Z,2.50
2023-03-29T01:15:02.133Z,1.02
2023-03-29T01:17:34.829Z,1.73
2023-03-29T01:20:20.194Z,1.48
2023-03-29T01:23:21.372Z,2.22
2023-03-29T01:26:29.706Z,1.98
2023-03-29T01:29:15.546Z,3.30
2023-03-29T01:31:55.833Z,2.65
2023-03-29T01:34:33.580Z,2.03
2023-03-29T01:37:15.774Z,3.05
2023-03-29T01:39:48.311Z,2.58
2023-03-29T01:42:23.969Z,1.75
2023-03-29T01:45:21.892Z,2.63
2023-03-29T01:47:57.800Z,2.78
2023-03-29T01:50:56.540Z,2.47
2023-03-29T01:53:58.993Z,2.08
2023-03-29T01:56:37.811Z,2.65
2023-03-29T01:59:20.917Z,1.90
2023-03-29T02:01:57.551Z,2.72
2023-03-29T02:04:34.727Z,1.10
2023-03-29T02:07:09.340Z,1.65
2023-03-29T02:09:43.660Z,2.40
2023-03-29T02:12:17.166Z,2.40
2023-03-29T02:14:50.927Z,1.70
2023-03-29T02:17:28.083Z,1.80
2023-03-29T02:20:17.371Z,1.98
2023-03-29T02:23:08.596Z,1.75
2023-03-29T02:25:43.379Z,0.88
2023-03-29T02:28:16.718Z,1.70
2023-03-29T02:31:24.275Z,2.78
2023-03-29T02:34:21.446Z,1.80
2023-03-29T02:37:00.703Z,1.60
2023-03-29T02:39:34.788Z,0.63
2023-03-29T02:42:08.858Z,2.15
2023-03-29T02:44:44.500Z,2.08
2023-03-29T02:47:26.624Z,1.75
2023-03-29T02:50:00.313Z,2.13
2023-03-29T02:52:37.228Z,2.03
2023-03-29T02:55:15.084Z,1.10
2023-03-29T02:57:47.944Z,2.63
2023-03-29T03:00:20.536Z,1.83
2023-03-29T03:02:53.432Z,2.13
2023-03-29T03:05:26.058Z,1.08
2023-03-29T03:07:59.033Z,1.80
2023-03-29T03:10:33.312Z,2.67
2023-03-29T03:13:06.144Z,1.45
2023-03-29T03:15:41.195Z,1.75
2023-03-29T03:18:14.268Z,1.38
2023-03-29T03:21:01.870Z,1.88
2023-03-29T03:23:35.489Z,1.50
2023-03-29T03:26:08.780Z,2.17
2023-03-29T03:28:41.995Z,2.47
2023-03-29T03:31:14.700Z,2.00
2023-03-29T03:33:47.532Z,2.13
2023-03-29T03:36:26.052Z,1.70
2023-03-29T03:38:58.838Z,1.40
2023-03-29T03:41:32.595Z,1.98
2023-03-29T03:44:05.695Z,1.88
2023-03-29T03:46:38.284Z,2.03
2023-03-29T03:49:11.084Z,2.63
2023-03-29T03:51:45.588Z,1.40
2023-03-29T03:54:18.505Z,2.72
2023-03-29T03:56:51.091Z,1.95
2023-03-29T03:59:23.955Z,1.67
2023-03-29T04:01:56.773Z,2.42
2023-03-29T04:04:30.925Z,1.58
2023-03-29T04:07:03.841Z,2.40
2023-03-29T04:09:37.746Z,2.50
2023-03-29T04:12:11.269Z,1.95
2023-03-29T04:14:44.075Z,2.83
2023-03-29T04:17:16.600Z,3.47
2023-03-29T04:19:49.494Z,2.42
2023-03-29T04:22:21.977Z,2.63
2023-03-29T04:24:54.853Z,2.30
2023-03-29T04:27:27.390Z,2.35
2023-03-29T04:30:00.197Z,3.50
2023-03-29T04:32:34.392Z,2.25
2023-03-29T04:35:08.075Z,2.00
2023-03-29T04:37:41.882Z,1.95
2023-03-29T04:40:15.083Z,2.65
2023-03-29T04:42:47.811Z,2.65
2023-03-29T04:45:20.627Z,3.08
2023-03-29T04:47:54.156Z,3.47
2023-03-29T04:50:27.567Z,2.83
2023-03-29T04:53:00.417Z,4.07
2023-03-29T04:55:33.217Z,3.42
2023-03-29T04:58:06.008Z,4.15
2023-03-29T05:00:39.462Z,4.45
2023-03-29T05:03:14.522Z,4.20
2023-03-29T05:05:47.493Z,3.95
2023-03-29T05:08:20.028Z,4.60
2023-03-29T05:10:52.815Z,5.00
2023-03-29T05:13:25.338Z,4.53
2023-03-29T05:15:58.224Z,4.68
2023-03-29T05:18:31.921Z,4.80
2023-03-29T05:21:05.478Z,3.55
2023-03-29T05:23:38.333Z,4.07
2023-03-29T05:26:14.646Z,3.85
2023-03-29T05:28:47.140Z,3.45
2023-03-29T05:31:20.318Z,4.43
2023-03-29T05:33:52.896Z,4.55
2023-03-29T05:36:25.703Z,4.85
2023-03-29T05:38:59.761Z,3.38
2023-03-29T05:41:33.632Z,3.97
2023-03-29T05:44:06.613Z,4.38
2023-03-29T05:46:39.679Z,4.55
2023-03-29T05:49:12.426Z,3.20
2023-03-29T05:51:46.012Z,3.40
2023-03-29T05:54:18.546Z,4.28
2023-03-29T05:56:51.446Z,4.13
2023-03-29T05:59:24.553Z,3.88
2023-03-29T06:01:57.373Z,4.60
2023-03-29T06:04:30.939Z,4.32
2023-03-29T06:07:05.209Z,4.30
2023-03-29T06:09:39.360Z,4.45
2023-03-29T06:12:12.359Z,5.07
2023-03-29T06:14:45.690Z,3.95
2023-03-29T06:17:19.317Z,4.80
2023-03-29T06:19:53.126Z,4.13
2023-03-29T06:22:26.289Z,4.70
2023-03-29T06:24:58.794Z,4.75
2023-03-29T06:27:32.908Z,4.55
2023-03-29T06:30:06.109Z,5.03
2023-03-29T06:32:38.971Z,4.80
2023-03-29T06:35:12.166Z,4.72
2023-03-29T06:37:50.058Z,4.35
2023-03-29T06:40:23.058Z,5.43
2023-03-29T06:42:57.896Z,4.75
2023-03-29T06:45:38.766Z,5.57
2023-03-29T06:48:12.376Z,4.80
2023-03-29T06:50:44.860Z,5.43
2023-03-29T06:53:17.651Z,5.35
2023-03-29T06:55:52.004Z,4.90
2023-03-29T06:58:24.790Z,5.70
2023-03-29T07:01:02.430Z,4.07
2023-03-29T07:03:36.368Z,5.53
2023-03-29T07:06:12.345Z,4.35
2023-03-29T07:08:46.929Z,4.93
2023-03-29T07:11:20.448Z,3.70
2023-03-29T07:13:53.207Z,4.30
2023-03-29T07:16:25.960Z,3.35
2023-03-29T07:18:58.875Z,3.95
2023-03-29T07:21:32.039Z,4.28
2023-03-29T07:24:06.748Z,3.30
2023-03-29T07:26:40.523Z,2.53
2023-03-29T07:29:19.374Z,3.28
2023-03-29T07:31:52.171Z,3.50
2023-03-29T07:34:24.992Z,3.75
2023-03-29T07:36:57.841Z,3.08
2023-03-29T07:39:31.074Z,4.28
2023-03-29T07:42:03.644Z,3.80
2023-03-29T07:44:37.471Z,3.65
2023-03-29T07:47:12.253Z,3.00
2023-03-29T07:49:44.981Z,2.85
2023-03-29T07:52:17.476Z,2.15
2023-03-29T07:54:50.264Z,2.40
2023-03-29T07:57:25.012Z,1.55
2023-03-29T07:59:58.171Z,1.77
2023-03-29T08:02:30.691Z,1.88
2023-03-29T08:05:03.608Z,2.30
2023-03-29T08:07:36.119Z,2.80
2023-03-29T08:10:11.571Z,2.30
2023-03-29T08:12:46.530Z,2.13
2023-03-29T08:15:19.661Z,2.42
2023-03-29T08:17:52.235Z,1.73
2023-03-29T08:20:25.458Z,2.80
2023-03-29T08:22:58.393Z,2.00
2023-03-29T08:25:31.155Z,1.80
2023-03-29T08:28:03.896Z,1.60
2023-03-29T08:30:37.243Z,1.48
2023-03-29T08:33:09.841Z,2.28
2023-03-29T08:35:42.967Z,1.60
2023-03-29T08:38:15.464Z,1.55
2023-03-29T08:40:49.670Z,1.95
2023-03-29T08:43:51.602Z,2.10
2023-03-29T08:46:35.494Z,1.92
2023-03-29T08:49:11.016Z,1.55
2023-03-29T08:51:49.412Z,2.13
2023-03-29T08:54:26.897Z,2.03
2023-03-29T08:57:12.420Z,1.80
2023-03-29T08:59:47.608Z,1.90
2023-03-29T09:02:27.209Z,1.75
2023-03-29T09:05:18.188Z,1.80
2023-03-29T09:07:51.001Z,1.90
2023-03-29T09:10:32.793Z,1.65
2023-03-29T09:13:20.975Z,1.65
2023-03-29T09:16:19.607Z,1.45
2023-03-29T09:19:01.467Z,1.55
2023-03-29T09:22:14.902Z,1.55
2023-03-29T09:24:54.176Z,2.13
2023-03-29T09:27:30.983Z,1.90
2023-03-29T09:30:30.794Z,1.95
2023-03-29T09:33:12.582Z,2.30
2023-03-29T09:36:13.945Z,2.50
2023-03-29T09:38:54.107Z,1.65
2023-03-29T09:41:42.709Z,2.10
2023-03-29T09:44:30.175Z,1.70
2023-03-29T09:47:19.243Z,2.78
2023-03-29T09:49:57.576Z,2.47
2023-03-29T09:52:30.749Z,2.42
2023-03-29T09:55:06.068Z,2.33
2023-03-29T09:57:39.057Z,2.20
2023-03-29T10:00:14.660Z,2.90
2023-03-29T10:02:52.783Z,2.13
2023-03-29T10:05:27.445Z,2.10
2023-03-29T10:08:01.497Z,2.63
2023-03-29T10:10:35.362Z,2.33
2023-03-29T10:13:16.672Z,2.72
2023-03-29T10:16:05.592Z,2.60
2023-03-29T10:18:42.923Z,2.15
2023-03-29T10:21:17.698Z,2.40
2023-03-29T10:23:59.460Z,2.55
2023-03-29T10:26:33.877Z,2.50
2023-03-29T10:29:08.398Z,2.45
2023-03-29T10:31:43.227Z,3.17
2023-03-29T10:34:18.229Z,2.13
2023-03-29T10:36:59.053Z,2.60
2023-03-29T10:39:34.769Z,2.28
2023-03-29T10:42:13.491Z,2.40
2023-03-29T10:44:57.987Z,2.22
2023-03-29T10:47:34.457Z,2.38
2023-03-29T10:50:11.726Z,2.72
2023-03-29T10:52:44.179Z,2.30
2023-03-29T10:55:17.223Z,2.20
2023-03-29T10:58:12.072Z,2.30
2023-03-29T11:00:58.170Z,1.70
2023-03-29T11:03:50.200Z,2.17
2023-03-29T11:06:34.780Z,6.47
2023-03-29T11:09:30.772Z,2.65
2023-03-29T11:12:19.561Z,2.30
2023-03-29T11:15:12.808Z,2.95
2023-03-29T11:18:00.506Z,1.88
2023-03-29T11:20:46.063Z,3.00
2023-03-29T11:23:39.889Z,2.13
2023-03-29T11:26:31.212Z,2.58
2023-03-29T11:29:11.006Z,2.10
2023-03-29T11:32:08.439Z,2.38
2023-03-29T11:35:23.290Z,2.17
2023-03-29T11:38:26.684Z,3.08
2023-03-29T11:41:32.162Z,2.38
2023-03-29T11:44:22.330Z,2.17
2023-03-29T11:47:05.171Z,1.83
2023-03-29T11:49:56.291Z,2.50
2023-03-29T11:52:41.197Z,2.03
2023-03-29T11:55:27.301Z,2.20
2023-03-29T11:58:18.761Z,1.60
2023-03-29T12:01:01.844Z,1.98
2023-03-29T12:03:48.321Z,1.85
2023-03-29T12:06:29.410Z,1.75
2023-03-29T12:09:14.260Z,2.05
2023-03-29T12:12:21.431Z,1.80
2023-03-29T12:15:11.308Z,1.65
2023-03-29T12:18:02.147Z,1.40
2023-03-29T12:20:40.483Z,1.77
2023-03-29T12:23:15.863Z,1.60
2023-03-29T12:25:48.690Z,2.20
2023-03-29T12:28:48.789Z,2.05
2023-03-29T12:34:05.478Z,2.33
2023-03-29T12:37:03.498Z,1.70
2023-03-29T12:39:37.172Z,2.40
2023-03-29T12:42:19.926Z,1.83
2023-03-29T12:45:00.664Z,2.65
2023-03-29T12:47:42.684Z,2.38
2023-03-29T12:50:28.567Z,2.10
2023-03-29T12:53:22.469Z,2.13
2023-03-29T12:56:13.472Z,1.95
2023-03-29T12:58:49.377Z,3.00
2023-03-29T13:01:37.880Z,2.15
2023-03-29T13:04:36.427Z,2.20
2023-03-29T13:07:24.217Z,2.55
2023-03-29T13:10:28.487Z,2.53
2023-03-29T13:13:16.946Z,2.50
2023-03-29T13:15:49.884Z,2.20
2023-03-29T13:18:55.184Z,2.10
2023-03-29T13:21:56.404Z,2.00
2023-03-29T13:25:04.983Z,2.28
2023-03-29T13:27:52.553Z,2.03
2023-03-29T13:30:41.569Z,2.38
2023-03-29T13:33:22.614Z,2.08
2023-03-29T13:36:23.428Z,2.08
2023-03-29T13:39:01.359Z,2.95
2023-03-29T13:41:40.077Z,3.22
2023-03-29T13:44:46.274Z,2.10
2023-03-29T13:47:32.695Z,2.53
2023-03-29T13:50:18.586Z,2.13
2023-03-29T13:53:10.163Z,2.13
2023-03-29T13:55:49.137Z,2.85
2023-03-29T13:59:09.455Z,2.08
2023-03-29T14:01:57.481Z,2.33
2023-03-29T14:04:39.427Z,2.42
2023-03-29T14:07:14.970Z,2.15
2023-03-29T14:09:51.122Z,2.33
2023-03-29T14:12:24.229Z,2.13
2023-03-29T14:15:14.428Z,2.45
2023-03-29T14:17:49.961Z,1.88
2023-03-29T14:20:23.285Z,2.40
2023-03-29T14:22:56.357Z,2.70
2023-03-29T14:25:29.815Z,2.45
2023-03-29T14:28:12.410Z,2.17
2023-03-29T14:30:51.924Z,2.25
2023-03-29T14:33:37.010Z,2.40
2023-03-29T14:36:15.413Z,2.55
2023-03-29T14:38:53.977Z,3.00
2023-03-29T14:41:46.558Z,2.78
2023-03-29T14:44:22.784Z,2.45
2023-03-29T14:46:56.302Z,2.28
2023-03-29T14:49:30.228Z,2.72
2023-03-29T14:52:03.421Z,2.40
2023-03-29T14:54:36.869Z,2.70
2023-03-29T14:57:18.631Z,3.13
2023-03-29T15:00:21.379Z,2.53
2023-03-29T15:02:58.701Z,2.15
2023-03-29T15:05:41.213Z,2.25
2023-03-29T15:09:03.720Z,2.42
2023-03-29T15:11:39.847Z,2.67
2023-03-29T15:14:19.007Z,2.80
2023-03-29T15:16:56.709Z,3.28
2023-03-29T15:19:29.432Z,3.40
2023-03-29T15:22:11.210Z,2.10
2023-03-29T15:24:48.593Z,3.28
2023-03-29T15:27:22.026Z,2.53
2023-03-29T15:30:11.206Z,2.70
2023-03-29T15:32:44.565Z,2.65
2023-03-29T15:35:24.949Z,2.47
2023-03-29T15:37:58.209Z,3.13
2023-03-29T15:40:31.473Z,2.30
2023-03-29T15:43:04.600Z,2.75
2023-03-29T15:45:37.287Z,1.70
2023-03-29T15:48:19.118Z,2.78
2023-03-29T15:50:51.986Z,2.25
2023-03-29T15:53:24.809Z,2.30
2023-03-29T15:56:01.667Z,3.08
2023-03-29T15:58:36.997Z,2.35
2023-03-29T16:01:34.775Z,2.10
2023-03-29T16:04:12.769Z,2.17
2023-03-29T16:06:48.626Z,2.72
2023-03-29T16:09:22.599Z,2.95
2023-03-29T16:11:55.313Z,2.42
2023-03-29T16:14:33.963Z,2.92
2023-03-29T16:17:07.003Z,2.83
2023-03-29T16:19:40.072Z,3.33
2023-03-29T16:22:12.669Z,2.38
2023-03-29T16:24:45.701Z,3.22
2023-03-29T16:27:18.956Z,2.78
2023-03-29T16:29:51.768Z,3.20
2023-03-29T16:32:24.500Z,2.65
2023-03-29T16:34:58.511Z,2.38
2023-03-29T16:37:31.023Z,2.65
2023-03-29T16:40:07.383Z,2.58
2023-03-29T16:42:40.069Z,2.47
2023-03-29T16:45:16.925Z,2.78
2023-03-29T16:47:50.044Z,3.00
2023-03-29T16:50:23.407Z,3.40
2023-03-29T16:52:56.117Z,3.95
2023-03-29T16:55:28.994Z,4.00
2023-03-29T16:58:01.605Z,3.60
2023-03-29T17:00:35.072Z,3.75
2023-03-29T17:03:08.086Z,3.97
2023-03-29T17:05:46.021Z,3.72
2023-03-29T17:08:19.778Z,3.40
2023-03-29T17:10:54.053Z,3.88
2023-03-29T17:13:26.689Z,4.75
2023-03-29T17:15:59.519Z,4.43
2023-03-29T17:18:32.075Z,4.45
2023-03-29T17:21:05.214Z,5.40
2023-03-29T17:23:37.722Z,4.25
2023-03-29T17:26:11.926Z,4.53
2023-03-29T17:28:44.508Z,5.38
2023-03-29T17:31:19.373Z,5.82
2023-03-29T17:33:52.317Z,5.20
2023-03-29T17:36:26.071Z,5.63
2023-03-29T17:41:32.949Z,6.22
2023-03-29T17:44:05.700Z,6.53
2023-03-29T17:46:41.579Z,6.60
2023-03-29T17:49:14.973Z,7.88
2023-03-29T17:51:47.746Z,5.55
2023-03-29T17:54:20.279Z,7.03
2023-03-29T17:56:53.100Z,7.03
2023-03-29T17:59:26.120Z,7.43
2023-03-29T18:02:00.143Z,8.48
2023-03-29T18:04:34.022Z,7.75
2023-03-29T18:07:07.367Z,9.23
2023-03-29T18:09:39.955Z,9.07
2023-03-29T18:12:12.744Z,8.80
2023-03-29T18:14:45.217Z,10.15
2023-03-29T18:17:18.232Z,8.88
2023-03-29T18:19:56.297Z,9.57
2023-03-29T18:22:39.468Z,11.02
2023-03-29T18:25:14.244Z,11.20
2023-03-29T18:27:50.369Z,13.27
2023-03-29T18:30:22.921Z,12.45
2023-03-29T18:32:55.827Z,11.73
2023-03-29T18:35:28.559Z,12.02
2023-03-29T18:38:03.151Z,12.88
2023-03-29T18:40:35.617Z,12.75
2023-03-29T18:43:13.192Z,14.02
2023-03-29T18:45:45.807Z,11.50
2023-03-29T18:48:18.845Z,11.35
2023-03-29T18:50:52.212Z,11.88
2023-03-29T18:53:25.110Z,11.50
2023-03-29T18:55:57.785Z,11.18
2023-03-29T18:58:31.262Z,12.93
2023-03-29T19:01:06.007Z,10.75
2023-03-29T19:03:46.992Z,11.52
2023-03-29T19:06:19.936Z,11.48
2023-03-29T19:08:54.080Z,11.30
2023-03-29T19:11:28.805Z,12.35
2023-03-29T19:14:03.403Z,11.77
2023-03-29T19:16:36.212Z,11.32
2023-03-29T19:19:09.174Z,11.85
2023-03-29T19:21:41.697Z,10.77
2023-03-29T19:24:15.806Z,11.38
2023-03-29T19:26:50.064Z,11.95
2023-03-29T19:29:26.138Z,11.50
2023-03-29T19:31:58.844Z,10.55
2023-03-29T19:34:31.839Z,11.07
2023-03-29T19:37:04.387Z,11.23
2023-03-29T19:39:37.201Z,11.40
2023-03-29T19:42:10.297Z,10.50
2023-03-29T19:44:43.144Z,11.30
2023-03-29T19:47:15.782Z,11.40
2023-03-29T19:49:48.589Z,9.82
2023-03-29T19:52:28.669Z,9.55
2023-03-29T19:57:34.897Z,9.52
2023-03-29T20:00:10.576Z,11.15
2023-03-29T20:02:43.181Z,9.98
2023-03-29T20:05:16.658Z,10.57
2023-03-29T20:07:49.167Z,10.32
2023-03-29T20:10:21.974Z,10.85
2023-03-29T20:12:56.874Z,10.30
2023-03-29T20:15:29.707Z,10.35
2023-03-29T20:18:02.458Z,9.85
2023-03-29T20:20:35.772Z,9.65
2023-03-29T20:23:08.842Z,10.55
2023-03-29T20:25:41.862Z,8.85
2023-03-29T20:28:14.727Z,10.20
2023-03-29T20:30:51.179Z,10.70
2023-03-29T20:33:23.859Z,8.40
2023-03-29T20:35:56.954Z,9.73
2023-03-29T20:38:29.572Z,11.65
2023-03-29T20:41:04.437Z,10.23
2023-03-29T20:43:41.321Z,10.68
2023-03-29T20:46:22.852Z,10.20
2023-03-29T20:48:56.128Z,9.23
2023-03-29T20:51:30.474Z,11.02
2023-03-29T20:54:05.708Z,11.43
2023-03-29T20:56:40.091Z,10.98
2023-03-29T20:59:13.008Z,11.68
2023-03-29T21:01:47.173Z,11.20
2023-03-29T21:04:20.063Z,10.98
2023-03-29T21:06:53.508Z,12.30
2023-03-29T21:09:26.075Z,10.65
2023-03-29T21:11:58.826Z,10.90
2023-03-29T21:14:33.126Z,11.15
2023-03-29T21:17:06.548Z,12.48
2023-03-29T21:19:39.606Z,11.55
2023-03-29T21:22:13.881Z,10.77
2023-03-29T21:24:47.500Z,11.75
2023-03-29T21:27:20.256Z,13.35
2023-03-29T21:29:52.824Z,13.27
2023-03-29T21:32:25.801Z,11.95
2023-03-29T21:34:58.628Z,11.48
2023-03-29T21:37:31.435Z,11.27
2023-03-29T21:40:06.043Z,11.63
2023-03-29T21:42:39.002Z,10.70
2023-03-29T21:45:11.701Z,10.55
2023-03-29T21:47:44.555Z,9.95
2023-03-29T21:50:17.269Z,11.07
2023-03-29T21:52:50.060Z,10.65
2023-03-29T21:55:22.732Z,11.43
2023-03-29T21:57:55.715Z,11.38
2023-03-29T22:00:28.795Z,9.82
2023-03-29T22:03:01.884Z,10.65
2023-03-29T22:05:34.741Z,10.23
2023-03-29T22:08:10.510Z,9.73
2023-03-29T22:10:43.038Z,9.98
2023-03-29T22:13:16.765Z,11.07
2023-03-29T22:15:55.322Z,9.95
2023-03-29T22:18:30.478Z,11.18
2023-03-29T22:21:03.225Z,9.18
2023-03-29T22:23:36.764Z,10.20
2023-03-29T22:26:11.312Z,9.13
2023-03-29T22:28:44.574Z,9.82
2023-03-29T22:31:19.203Z,10.18
2023-03-29T22:33:52.200Z,9.43
2023-03-29T22:36:27.477Z,10.13
2023-03-29T22:39:00.624Z,9.35
2023-03-29T22:41:33.183Z,10.45
2023-03-29T22:44:06.266Z,10.18
2023-03-29T22:46:38.919Z,9.82
2023-03-29T22:49:11.969Z,10.57
2023-03-29T22:51:44.489Z,10.55
2023-03-29T22:54:17.498Z,11.27
2023-03-29T22:56:50.434Z,9.48
2023-03-29T22:59:25.075Z,9.63
2023-03-29T23:01:57.680Z,9.10
2023-03-29T23:04:31.358Z,9.25
2023-03-29T23:07:04.190Z,9.82
2023-03-29T23:09:37.629Z,9.15
2023-03-29T23:12:10.122Z,10.02
2023-03-29T23:14:45.158Z,10.25
2023-03-29T23:17:19.256Z,8.80
2023-03-29T23:19:52.094Z,9.55
2023-03-29T23:22:24.909Z,8.15
2023-03-29T23:24:58.646Z,9.25
2023-03-29T23:27:31.196Z,10.27
2023-03-29T23:30:04.286Z,9.52
2023-03-29T23:32:36.806Z,10.30
2023-03-29T23:35:09.885Z,9.73
2023-03-29T23:37:43.064Z,8.80
2023-03-29T23:40:16.219Z,10.93
2023-03-29T23:42:49.003Z,9.68
2023-03-29T23:45:21.898Z,9.25
2023-03-29T23:47:54.519Z,9.65
2023-03-29T23:50:28.800Z,10.13
2023-03-29T23:53:01.380Z,10.48
2023-03-29T23:55:34.377Z,10.25
2023-03-29T23:58:07.300Z,11.48
